Time;durP1;ratioP1;P1;durP2;ratioP2;P2;SDS_P1;SDS_P2;PMS_P1;PMS_P2;Temp;Humidity;BMP_temperature;BMP_pressure;BME280_temperature;BME280_humidity;BME280_pressure;Samples;Min_cycle;Max_cycle;Signal;HPM_P1;HPM_P2
2021/07/02 00:01:15;;;;;;;12.87;10.53;;;;;;;;;;5073521;28;20169;-80
2021/07/02 00:03:41;;;;;;;14.63;9.57;;;;;;;;;;5072464;28;20204;-80
2021/07/02 00:06:07;;;;;;;12.70;9.60;;;;;;;;;;5071892;28;20325;-80
2021/07/02 00:08:33;;;;;;;10.43;9.33;;;;;;;;;;5072199;28;20187;-80
2021/07/02 00:11:00;;;;;;;11.67;9.90;;;;;;;;;;5073709;28;20254;-80
2021/07/02 00:13:26;;;;;;;13.07;9.30;;;;;;;;;;5073809;28;20712;-80
2021/07/02 00:15:52;;;;;;;13.97;9.63;;;;;;;;;;5072485;28;20181;-80
2021/07/02 00:18:18;;;;;;;10.83;9.73;;;;;;;;;;5072756;28;20176;-80
2021/07/02 00:20:44;;;;;;;11.90;9.17;;;;;;;;;;5073013;28;20242;-80
2021/07/02 00:23:10;;;;;;;10.67;9.63;;;;;;;;;;5069013;28;20682;-80
2021/07/02 00:25:39;;;;;;;12.07;9.90;;;;;;;;;;5066264;28;20217;-80
2021/07/02 00:28:06;;;;;;;13.07;10.43;;;;;;;;;;5072356;28;20181;-81
2021/07/02 00:30:35;;;;;;;11.37;10.17;;;;;;;;;;5071111;28;20470;-80
2021/07/02 00:33:01;;;;;;;13.63;9.43;;;;;;;;;;5070466;28;20185;-80
2021/07/02 00:35:28;;;;;;;13.37;9.50;;;;;;;;;;5071709;28;20224;-80
2021/07/02 00:37:54;;;;;;;12.77;9.73;;;;;;;;;;5072105;28;20184;-80
2021/07/02 00:40:20;;;;;;;11.20;9.20;;;;;;;;;;5071560;28;20204;-80
2021/07/02 00:42:46;;;;;;;11.67;9.50;;;;;;;;;;5072911;28;20176;-80
2021/07/02 00:45:13;;;;;;;12.07;10.50;;;;;;;;;;5068175;28;20177;-80
2021/07/02 00:47:39;;;;;;;13.17;8.90;;;;;;;;;;5063342;28;20601;-80
2021/07/02 00:50:06;;;;;;;12.03;9.30;;;;;;;;;;5073867;28;20283;-80
2021/07/02 00:52:32;;;;;;;10.30;9.20;;;;;;;;;;5078049;28;20199;-80
2021/07/02 00:54:58;;;;;;;10.07;9.07;;;;;;;;;;5079888;28;20187;-80
2021/07/02 00:57:25;;;;;;;15.23;10.53;;;;;;;;;;5078911;28;20184;-80
2021/07/02 00:59:51;;;;;;;10.47;9.47;;;;;;;;;;5078338;28;20231;-80
2021/07/02 01:02:18;;;;;;;10.30;9.07;;;;;;;;;;5077849;28;20183;-80
2021/07/02 01:04:44;;;;;;;11.87;9.80;;;;;;;;;;5078020;28;20279;-80
2021/07/02 01:07:14;;;;;;;13.23;8.40;;;;;;;;;;5078711;28;20268;-80
2021/07/02 01:09:44;;;;;;;11.80;9.43;;;;;;;;;;5077946;28;20180;-80
2021/07/02 01:12:11;;;;;;;9.37;8.47;;;;;;;;;;5076443;28;20192;-81
2021/07/02 01:14:37;;;;;;;12.10;9.03;;;;;;;;;;5075020;28;20184;-81
2021/07/02 01:17:03;;;;;;;12.10;9.57;;;;;;;;;;5075083;28;20176;-81
2021/07/02 01:19:29;;;;;;;11.07;9.27;;;;;;;;;;5072424;28;20224;-80
2021/07/02 01:21:56;;;;;;;10.17;8.20;;;;;;;;;;5073065;28;20181;-81
2021/07/02 01:24:25;;;;;;;9.83;8.27;;;;;;;;;;5072941;28;20180;-81
2021/07/02 01:26:51;;;;;;;9.10;8.20;;;;;;;;;;5073307;28;20242;-81
2021/07/02 01:29:18;;;;;;;10.93;8.27;;;;;;;;;;5072327;28;20185;-81
2021/07/02 01:31:44;;;;;;;9.93;8.87;;;;;;;;;;5074670;28;20177;-81
2021/07/02 01:34:10;;;;;;;9.50;8.30;;;;;;;;;;5072190;28;20184;-80
2021/07/02 01:36:36;;;;;;;11.73;8.80;;;;;;;;;;5072508;28;20215;-81
2021/07/02 01:39:03;;;;;;;11.23;8.53;;;;;;;;;;5073330;28;20253;-81
2021/07/02 01:41:29;;;;;;;9.57;8.57;;;;;;;;;;5053829;28;20168;-81
2021/07/02 01:43:55;;;;;;;11.50;8.40;;;;;;;;;;5064833;28;20199;-81
2021/07/02 01:46:21;;;;;;;12.77;9.17;;;;;;;;;;5073160;28;20178;-81
2021/07/02 01:48:47;;;;;;;10.63;8.33;;;;;;;;;;5071550;28;20182;-81
2021/07/02 01:51:14;;;;;;;12.05;9.98;;;;;;;;;;5071841;28;20418;-81
2021/07/02 01:53:40;;;;;;;9.60;8.33;;;;;;;;;;5071209;28;20175;-81
2021/07/02 01:56:06;;;;;;;9.67;8.47;;;;;;;;;;5073029;28;20183;-81
2021/07/02 01:58:32;;;;;;;10.77;8.83;;;;;;;;;;5072753;28;20169;-81
2021/07/02 02:00:58;;;;;;;10.07;8.70;;;;;;;;;;5071461;28;20205;-80
2021/07/02 02:03:24;;;;;;;10.17;8.47;;;;;;;;;;5071847;28;20194;-81
2021/07/02 02:05:51;;;;;;;9.67;8.67;;;;;;;;;;5069944;28;20651;-81
2021/07/02 02:08:17;;;;;;;9.60;8.27;;;;;;;;;;5071011;28;20619;-80
2021/07/02 02:10:43;;;;;;;10.57;8.23;;;;;;;;;;5070744;28;20192;-81
2021/07/02 02:13:09;;;;;;;14.53;8.73;;;;;;;;;;5070855;28;20534;-80
2021/07/02 02:15:35;;;;;;;10.43;8.90;;;;;;;;;;5070381;28;20178;-81
2021/07/02 02:18:01;;;;;;;12.10;8.87;;;;;;;;;;5070842;28;20180;-80
2021/07/02 02:20:27;;;;;;;10.27;8.83;;;;;;;;;;5069692;28;20196;-80
2021/07/02 02:22:54;;;;;;;11.10;8.10;;;;;;;;;;5070087;28;20176;-80
2021/07/02 02:25:20;;;;;;;11.57;8.60;;;;;;;;;;5071274;28;20219;-81
2021/07/02 02:27:47;;;;;;;9.73;8.47;;;;;;;;;;5070681;28;20173;-80
2021/07/02 02:30:14;;;;;;;13.43;8.57;;;;;;;;;;5069989;28;20188;-81
2021/07/02 02:32:40;;;;;;;13.43;7.70;;;;;;;;;;5070936;28;20176;-80
2021/07/02 02:35:06;;;;;;;10.00;8.10;;;;;;;;;;5068903;28;20173;-80
2021/07/02 02:37:32;;;;;;;11.13;8.60;;;;;;;;;;5070330;28;20184;-80
2021/07/02 02:39:59;;;;;;;10.83;8.03;;;;;;;;;;5071347;28;20843;-80
2021/07/02 02:42:25;;;;;;;13.40;8.60;;;;;;;;;;5070543;28;20173;-80
2021/07/02 02:44:51;;;;;;;9.50;8.47;;;;;;;;;;5070337;28;20226;-81
2021/07/02 02:47:17;;;;;;;10.77;8.40;;;;;;;;;;5070428;28;20173;-81
2021/07/02 02:49:43;;;;;;;9.50;7.43;;;;;;;;;;5069603;28;20843;-80
2021/07/02 02:52:09;;;;;;;10.47;9.23;;;;;;;;;;5069966;28;20523;-80
2021/07/02 02:54:35;;;;;;;12.43;9.03;;;;;;;;;;5069506;28;20195;-80
2021/07/02 02:57:04;;;;;;;11.33;8.97;;;;;;;;;;5069763;28;20184;-80
2021/07/02 02:59:31;;;;;;;11.57;9.13;;;;;;;;;;5070189;28;20560;-80
2021/07/02 03:01:57;;;;;;;9.17;8.13;;;;;;;;;;5070256;28;20172;-80
2021/07/02 03:04:23;;;;;;;10.57;8.50;;;;;;;;;;5069312;28;20191;-80
2021/07/02 03:06:49;;;;;;;10.57;8.73;;;;;;;;;;5069268;28;20192;-80
2021/07/02 03:09:16;;;;;;;10.50;9.40;;;;;;;;;;5071299;28;20165;-80
2021/07/02 03:11:44;;;;;;;13.33;8.47;;;;;;;;;;5070916;28;20176;-80
2021/07/02 03:14:10;;;;;;;11.43;8.33;;;;;;;;;;5067216;28;20522;-80
2021/07/02 03:16:36;;;;;;;12.07;8.40;;;;;;;;;;5058275;28;20204;-80
2021/07/02 03:19:02;;;;;;;10.43;8.47;;;;;;;;;;5070352;28;20176;-80
2021/07/02 03:21:28;;;;;;;10.17;8.20;;;;;;;;;;5070835;28;20173;-80
2021/07/02 03:23:54;;;;;;;11.20;7.73;;;;;;;;;;5069604;28;20195;-80
2021/07/02 03:26:20;;;;;;;9.13;8.23;;;;;;;;;;5070697;28;20172;-81
2021/07/02 03:28:46;;;;;;;9.80;8.30;;;;;;;;;;5069616;28;20529;-80
2021/07/02 03:31:12;;;;;;;9.60;8.57;;;;;;;;;;5065875;28;20189;-80
2021/07/02 03:33:38;;;;;;;10.37;9.10;;;;;;;;;;5050714;28;20188;-80
2021/07/02 03:36:05;;;;;;;11.30;8.53;;;;;;;;;;5073297;28;20212;-80
2021/07/02 03:38:31;;;;;;;10.50;8.40;;;;;;;;;;5073758;28;20176;-80
2021/07/02 03:40:57;;;;;;;11.73;9.27;;;;;;;;;;5074895;28;20203;-81
2021/07/02 03:43:23;;;;;;;13.90;8.50;;;;;;;;;;5073047;28;20180;-80
2021/07/02 03:45:49;;;;;;;10.07;7.73;;;;;;;;;;5073020;28;20191;-79
2021/07/02 03:48:16;;;;;;;10.43;8.83;;;;;;;;;;5060779;28;20594;-80
2021/07/02 03:50:42;;;;;;;10.00;8.33;;;;;;;;;;5068983;28;20262;-80
2021/07/02 03:53:08;;;;;;;11.33;8.73;;;;;;;;;;5070489;28;20216;-80
2021/07/02 03:55:34;;;;;;;10.20;7.80;;;;;;;;;;5072506;28;20191;-80
2021/07/02 03:58:00;;;;;;;10.27;8.30;;;;;;;;;;5073550;28;20187;-80
2021/07/02 04:00:26;;;;;;;10.60;8.27;;;;;;;;;;5069133;28;20197;-80
2021/07/02 04:02:52;;;;;;;9.20;8.07;;;;;;;;;;5052875;28;20181;-80
2021/07/02 04:05:18;;;;;;;13.57;9.03;;;;;;;;;;5058274;28;20164;-80
2021/07/02 04:07:44;;;;;;;10.47;8.27;;;;;;;;;;5072779;28;20288;-80
2021/07/02 04:10:10;;;;;;;13.27;9.67;;;;;;;;;;5073866;28;20781;-80
2021/07/02 04:12:36;;;;;;;12.17;10.57;;;;;;;;;;5072458;28;20190;-80
2021/07/02 04:15:03;;;;;;;12.23;8.67;;;;;;;;;;5063882;28;20223;-80
2021/07/02 04:17:29;;;;;;;8.10;7.40;;;;;;;;;;5072409;28;20241;-80
2021/07/02 04:19:56;;;;;;;10.63;8.23;;;;;;;;;;5071648;28;20696;-80
2021/07/02 04:22:22;;;;;;;12.40;8.67;;;;;;;;;;5072330;28;20172;-80
2021/07/02 04:24:48;;;;;;;9.57;7.97;;;;;;;;;;5072052;28;20222;-80
2021/07/02 04:27:15;;;;;;;11.63;8.20;;;;;;;;;;5073973;28;20530;-81
2021/07/02 04:29:41;;;;;;;9.87;8.23;;;;;;;;;;5072995;28;20180;-81
2021/07/02 04:32:07;;;;;;;9.73;7.33;;;;;;;;;;5072969;28;20175;-80
2021/07/02 04:34:34;;;;;;;12.57;8.20;;;;;;;;;;5071155;28;20186;-81
2021/07/02 04:37:00;;;;;;;9.10;7.37;;;;;;;;;;5068787;28;20223;-81
2021/07/02 04:39:26;;;;;;;8.60;7.63;;;;;;;;;;5071464;28;20207;-80
2021/07/02 04:41:52;;;;;;;8.83;7.83;;;;;;;;;;5053959;28;20196;-81
2021/07/02 04:44:18;;;;;;;10.40;8.30;;;;;;;;;;5052019;28;20197;-81
2021/07/02 04:46:44;;;;;;;9.20;7.67;;;;;;;;;;5070686;28;20168;-81
2021/07/02 04:49:10;;;;;;;8.70;7.43;;;;;;;;;;5071508;28;20204;-80
2021/07/02 04:51:36;;;;;;;9.03;8.20;;;;;;;;;;5072224;28;20414;-80
2021/07/02 04:54:03;;;;;;;10.00;7.37;;;;;;;;;;5071364;28;20172;-81
2021/07/02 04:56:29;;;;;;;8.90;7.60;;;;;;;;;;5072512;28;20191;-81
2021/07/02 04:58:55;;;;;;;8.23;7.17;;;;;;;;;;5071119;28;20180;-81
2021/07/02 05:01:25;;;;;;;10.60;7.57;;;;;;;;;;5071296;28;20228;-80
2021/07/02 05:03:51;;;;;;;10.30;8.00;;;;;;;;;;5070962;28;20208;-83
2021/07/02 05:06:17;;;;;;;11.20;7.73;;;;;;;;;;5071022;28;20314;-81
2021/07/02 05:08:44;;;;;;;10.77;8.80;;;;;;;;;;5072373;28;20209;-80
2021/07/02 05:11:10;;;;;;;8.97;7.43;;;;;;;;;;5073333;28;20177;-82
2021/07/02 05:13:37;;;;;;;8.50;7.43;;;;;;;;;;5072021;28;20176;-81
2021/07/02 05:16:04;;;;;;;10.50;8.13;;;;;;;;;;5071399;28;20199;-81
2021/07/02 05:18:30;;;;;;;10.97;8.73;;;;;;;;;;5071180;28;20271;-81
2021/07/02 05:20:56;;;;;;;8.47;7.50;;;;;;;;;;5072512;28;20842;-81
2021/07/02 05:23:22;;;;;;;10.60;7.73;;;;;;;;;;5071172;28;20192;-81
2021/07/02 05:25:48;;;;;;;7.83;7.03;;;;;;;;;;5071268;28;20173;-81
2021/07/02 05:28:14;;;;;;;9.23;7.97;;;;;;;;;;5072915;28;20188;-80
2021/07/02 05:30:40;;;;;;;8.50;7.43;;;;;;;;;;5070045;28;20246;-81
2021/07/02 05:33:06;;;;;;;11.47;7.67;;;;;;;;;;5070614;28;20195;-81
2021/07/02 05:35:32;;;;;;;8.77;7.87;;;;;;;;;;5069917;28;20659;-80
2021/07/02 05:37:58;;;;;;;10.50;7.67;;;;;;;;;;5073306;28;20631;-81
2021/07/02 05:40:24;;;;;;;9.63;7.77;;;;;;;;;;5071660;28;20511;-80
2021/07/02 05:42:50;;;;;;;8.77;7.57;;;;;;;;;;5070442;28;20690;-80
2021/07/02 05:45:17;;;;;;;11.03;8.80;;;;;;;;;;5070901;28;20165;-81
2021/07/02 05:47:51;;;;;;;10.07;8.23;;;;;;;;;;5071747;28;20173;-81
2021/07/02 05:50:18;;;;;;;9.27;8.30;;;;;;;;;;5053804;28;20179;-80
2021/07/02 05:52:44;;;;;;;9.60;7.37;;;;;;;;;;5070743;28;20246;-80
2021/07/02 05:55:12;;;;;;;9.97;8.03;;;;;;;;;;5070593;28;20726;-81
2021/07/02 05:57:38;;;;;;;10.30;8.40;;;;;;;;;;5070103;28;20180;-80
2021/07/02 06:00:05;;;;;;;8.77;7.90;;;;;;;;;;5070071;28;20272;-80
2021/07/02 06:02:31;;;;;;;9.93;8.70;;;;;;;;;;5068269;28;20194;-81
2021/07/02 06:04:57;;;;;;;12.90;8.30;;;;;;;;;;5069932;28;20192;-81
2021/07/02 06:07:23;;;;;;;10.70;7.50;;;;;;;;;;5071811;28;20308;-80
2021/07/02 06:09:49;;;;;;;11.70;7.87;;;;;;;;;;5058156;28;20189;-80
2021/07/02 06:12:15;;;;;;;9.03;7.87;;;;;;;;;;5069550;28;20184;-79
2021/07/02 06:14:41;;;;;;;13.53;7.90;;;;;;;;;;5063572;28;20188;-77
2021/07/02 06:17:07;;;;;;;8.87;7.73;;;;;;;;;;5064736;28;20195;-78
2021/07/02 06:19:33;;;;;;;13.97;8.80;;;;;;;;;;5068203;28;20204;-77
2021/07/02 06:21:59;;;;;;;11.40;8.07;;;;;;;;;;5067549;28;20283;-78
2021/07/02 06:24:26;;;;;;;13.00;8.43;;;;;;;;;;5068387;28;20168;-78
2021/07/02 06:26:52;;;;;;;12.60;8.00;;;;;;;;;;5067566;28;20267;-77
2021/07/02 06:29:18;;;;;;;11.63;7.80;;;;;;;;;;5063189;28;20613;-78
2021/07/02 06:31:44;;;;;;;10.67;8.00;;;;;;;;;;5062858;28;20176;-78
2021/07/02 06:34:10;;;;;;;9.47;7.57;;;;;;;;;;5069697;28;20496;-77
2021/07/02 06:36:36;;;;;;;10.07;7.43;;;;;;;;;;5070226;28;20547;-78
2021/07/02 06:39:02;;;;;;;9.67;7.30;;;;;;;;;;5068844;28;20263;-78
2021/07/02 06:41:28;;;;;;;11.97;7.90;;;;;;;;;;5065727;28;20695;-77
2021/07/02 06:43:54;;;;;;;12.90;8.00;;;;;;;;;;5069624;28;20169;-78
2021/07/02 06:46:20;;;;;;;10.73;7.57;;;;;;;;;;5068551;28;20172;-78
2021/07/02 06:48:47;;;;;;;12.20;7.50;;;;;;;;;;5063866;28;20188;-78
2021/07/02 06:51:13;;;;;;;8.37;7.03;;;;;;;;;;5068180;28;20184;-78
2021/07/02 06:53:39;;;;;;;7.57;6.50;;;;;;;;;;5067925;28;20188;-77
2021/07/02 06:56:05;;;;;;;9.00;7.17;;;;;;;;;;5068993;28;20180;-78
2021/07/02 06:58:31;;;;;;;9.80;6.73;;;;;;;;;;5069080;28;20180;-78
2021/07/02 07:00:57;;;;;;;9.60;7.03;;;;;;;;;;5070024;28;20204;-78
2021/07/02 07:03:23;;;;;;;9.60;7.17;;;;;;;;;;5068871;28;20291;-78
2021/07/02 07:05:51;;;;;;;9.60;6.70;;;;;;;;;;5068243;28;20267;-78
2021/07/02 07:08:17;;;;;;;8.83;6.50;;;;;;;;;;5068202;28;20205;-77
2021/07/02 07:10:43;;;;;;;9.27;6.37;;;;;;;;;;5067928;28;20184;-78
2021/07/02 07:13:12;;;;;;;9.50;6.63;;;;;;;;;;5069181;28;20172;-78
2021/07/02 07:15:38;;;;;;;8.60;6.50;;;;;;;;;;5070013;28;20271;-77
2021/07/02 07:18:04;;;;;;;11.53;6.57;;;;;;;;;;5068414;28;20733;-78
2021/07/02 07:20:30;;;;;;;7.13;6.00;;;;;;;;;;5067450;28;20223;-78
2021/07/02 07:22:57;;;;;;;7.87;6.20;;;;;;;;;;5065528;28;20176;-77
2021/07/02 07:25:24;;;;;;;10.30;6.77;;;;;;;;;;5061975;28;20168;-78
2021/07/02 07:27:50;;;;;;;11.73;7.40;;;;;;;;;;5068281;28;20171;-78
2021/07/02 07:30:16;;;;;;;10.97;5.97;;;;;;;;;;5069539;28;20172;-78
2021/07/02 07:32:42;;;;;;;8.27;5.50;;;;;;;;;;5068196;28;20259;-78
2021/07/02 07:35:22;;;;;;;8.37;5.73;;;;;;;;;;5068519;28;20691;-79
2021/07/02 07:37:53;;;;;;;8.20;6.33;;;;;;;;;;5069607;28;20530;-78
2021/07/02 07:40:19;;;;;;;6.37;5.20;;;;;;;;;;5068587;28;20689;-79
2021/07/02 07:42:45;;;;;;;7.93;5.37;;;;;;;;;;5070034;28;20195;-78
2021/07/02 07:45:11;;;;;;;6.73;5.70;;;;;;;;;;5068340;28;20181;-78
2021/07/02 07:47:37;;;;;;;6.80;4.93;;;;;;;;;;5066625;28;20295;-78
2021/07/02 07:50:09;;;;;;;9.27;6.13;;;;;;;;;;5067715;28;20173;-78
2021/07/02 07:52:52;;;;;;;7.17;6.47;;;;;;;;;;5067549;28;20640;-78
2021/07/02 07:55:19;;;;;;;8.80;5.53;;;;;;;;;;5069945;28;20168;-78
2021/07/02 07:57:45;;;;;;;10.82;6.45;;;;;;;;;;5069797;28;20819;-78
2021/07/02 08:00:12;;;;;;;7.03;5.40;;;;;;;;;;5067654;28;20204;-78
2021/07/02 08:02:38;;;;;;;8.13;6.07;;;;;;;;;;5067909;28;20627;-79
2021/07/02 08:05:04;;;;;;;8.83;5.47;;;;;;;;;;5072649;28;20191;-79
2021/07/02 08:07:40;;;;;;;7.93;5.50;;;;;;;;;;5068135;28;20200;-79
2021/07/02 08:10:08;;;;;;;5.03;4.53;;;;;;;;;;5067886;28;20187;-78
2021/07/02 08:12:34;;;;;;;5.90;5.13;;;;;;;;;;5068255;28;20842;-78
2021/07/02 08:15:00;;;;;;;8.37;5.50;;;;;;;;;;5065806;28;20185;-78
2021/07/02 08:17:29;;;;;;;9.63;5.30;;;;;;;;;;5062963;28;20192;-78
2021/07/02 08:19:56;;;;;;;7.93;4.57;;;;;;;;;;5054735;28;20671;-79
2021/07/02 08:22:23;;;;;;;5.20;4.70;;;;;;;;;;5071558;28;20758;-80
2021/07/02 08:24:49;;;;;;;4.70;4.30;;;;;;;;;;5071812;28;20168;-79
2021/07/02 08:27:15;;;;;;;9.13;4.43;;;;;;;;;;5071758;28;20175;-79
2021/07/02 08:29:41;;;;;;;6.43;4.70;;;;;;;;;;5072134;28;20209;-79
2021/07/02 08:32:07;;;;;;;4.80;4.30;;;;;;;;;;5071616;28;20176;-79
2021/07/02 08:34:33;;;;;;;5.53;4.07;;;;;;;;;;5072614;28;20195;-79
2021/07/02 08:36:59;;;;;;;6.43;4.17;;;;;;;;;;5071683;28;20224;-79
2021/07/02 08:39:25;;;;;;;6.53;4.37;;;;;;;;;;5071412;28;20188;-79
2021/07/02 08:41:51;;;;;;;6.43;4.30;;;;;;;;;;5072372;28;20653;-79
2021/07/02 08:44:17;;;;;;;5.53;4.33;;;;;;;;;;5071672;28;20173;-79
2021/07/02 08:46:47;;;;;;;6.83;3.87;;;;;;;;;;5072623;28;20188;-78
2021/07/02 08:49:13;;;;;;;4.83;4.00;;;;;;;;;;5071070;28;20620;-79
2021/07/02 08:51:39;;;;;;;4.67;4.27;;;;;;;;;;5071651;28;20555;-79
2021/07/02 08:54:06;;;;;;;7.90;4.33;;;;;;;;;;5071468;28;20185;-79
2021/07/02 08:56:32;;;;;;;5.03;3.90;;;;;;;;;;5073157;28;20634;-79
2021/07/02 08:58:58;;;;;;;5.13;3.87;;;;;;;;;;5072401;28;20281;-79
2021/07/02 09:01:34;;;;;;;4.87;4.03;;;;;;;;;;5073025;28;20200;-79
2021/07/02 09:04:17;;;;;;;5.23;3.83;;;;;;;;;;5070783;28;20305;-79
2021/07/02 09:06:43;;;;;;;5.40;4.00;;;;;;;;;;5072399;28;20302;-79
2021/07/02 09:09:09;;;;;;;4.50;4.03;;;;;;;;;;5070990;28;20205;-79
2021/07/02 09:11:36;;;;;;;5.90;3.97;;;;;;;;;;5071375;28;20249;-79
2021/07/02 09:14:03;;;;;;;5.40;4.43;;;;;;;;;;5070823;28;20185;-79
2021/07/02 09:16:38;;;;;;;4.93;4.33;;;;;;;;;;5071925;28;20564;-79
2021/07/02 09:19:20;;;;;;;5.10;3.90;;;;;;;;;;5071220;28;20184;-79
2021/07/02 09:21:46;;;;;;;5.07;3.83;;;;;;;;;;5055852;28;20187;-79
2021/07/02 09:24:32;;;;;;;5.50;4.03;;;;;;;;;;5070801;28;20622;-79
2021/07/02 09:26:58;;;;;;;4.87;4.37;;;;;;;;;;5069878;28;20176;-78
2021/07/02 09:29:29;;;;;;;5.37;4.57;;;;;;;;;;5070121;28;20203;-80
2021/07/02 09:32:00;;;;;;;6.13;4.63;;;;;;;;;;5070655;28;20168;-80
2021/07/02 09:34:44;;;;;;;5.67;4.17;;;;;;;;;;5070880;28;20642;-80
2021/07/02 09:37:24;;;;;;;4.87;4.20;;;;;;;;;;5069582;28;20289;-80
2021/07/02 09:39:51;;;;;;;4.23;3.83;;;;;;;;;;5064058;28;20699;-80
2021/07/02 09:42:23;;;;;;;6.60;4.30;;;;;;;;;;5071135;28;20184;-80
2021/07/02 09:45:08;;;;;;;5.50;4.50;;;;;;;;;;5070922;28;20259;-80
2021/07/02 09:47:36;;;;;;;5.13;4.30;;;;;;;;;;5051123;28;20183;-80
2021/07/02 09:50:21;;;;;;;6.37;4.33;;;;;;;;;;5060676;28;20196;-81
2021/07/02 09:52:55;;;;;;;4.37;3.87;;;;;;;;;;5070600;28;20631;-80
2021/07/02 09:55:44;;;;;;;17.70;5.93;;;;;;;;;;5069850;28;20179;-81
2021/07/02 09:58:18;;;;;;;5.03;4.60;;;;;;;;;;5062467;28;20188;-81
2021/07/02 10:00:47;;;;;;;5.57;4.23;;;;;;;;;;5069776;28;20200;-81
2021/07/02 10:03:13;;;;;;;5.13;4.27;;;;;;;;;;5069064;28;20206;-80
2021/07/02 10:05:51;;;;;;;6.57;4.27;;;;;;;;;;5066116;28;20276;-80
2021/07/02 10:08:18;;;;;;;7.43;4.27;;;;;;;;;;5051699;28;20365;-80
2021/07/02 10:10:45;;;;;;;5.23;4.70;;;;;;;;;;5070314;28;20522;-80
2021/07/02 10:13:11;;;;;;;4.77;4.13;;;;;;;;;;5071021;28;20267;-81
2021/07/02 10:15:37;;;;;;;4.13;3.73;;;;;;;;;;5070428;28;20179;-81
2021/07/02 10:18:03;;;;;;;4.97;4.47;;;;;;;;;;5070242;28;20322;-80
2021/07/02 10:20:32;;;;;;;4.93;4.40;;;;;;;;;;5069322;28;20208;-80
2021/07/02 10:22:59;;;;;;;7.13;4.33;;;;;;;;;;5070396;28;20651;-81
2021/07/02 10:25:27;;;;;;;4.83;4.27;;;;;;;;;;5069791;28;20184;-81
2021/07/02 10:27:54;;;;;;;6.27;4.83;;;;;;;;;;5071693;28;20577;-80
2021/07/02 10:30:20;;;;;;;5.90;4.77;;;;;;;;;;5068887;28;20181;-82
2021/07/02 10:32:48;;;;;;;4.70;4.30;;;;;;;;;;5054291;28;20176;-80
2021/07/02 10:35:15;;;;;;;6.50;5.10;;;;;;;;;;5067616;28;20235;-80
2021/07/02 10:37:47;;;;;;;5.27;4.57;;;;;;;;;;5070059;28;20226;-81
2021/07/02 10:40:19;;;;;;;6.83;4.63;;;;;;;;;;5069297;28;20571;-81
2021/07/02 10:43:21;;;;;;;4.27;3.87;;;;;;;;;;5070086;28;20172;-81
2021/07/02 10:46:05;;;;;;;6.28;5.20;;;;;;;;;;5018121;28;20496;-81
2021/07/02 10:48:57;;;;;;;8.67;4.97;;;;;;;;;;5050110;28;20197;-80
2021/07/02 10:51:36;;;;;;;8.10;4.97;;;;;;;;;;5012151;28;20185;-80
2021/07/02 10:54:05;;;;;;;5.07;4.17;;;;;;;;;;5051968;28;20256;-81
2021/07/02 10:56:31;;;;;;;7.77;5.13;;;;;;;;;;5069692;28;20169;-80
2021/07/02 10:58:57;;;;;;;5.90;4.20;;;;;;;;;;5069260;28;20285;-81
2021/07/02 11:01:24;;;;;;;6.93;4.93;;;;;;;;;;5066422;28;20200;-81
2021/07/02 11:03:51;;;;;;;7.43;4.50;;;;;;;;;;5068030;28;20184;-80
2021/07/02 11:06:39;;;;;;;4.77;4.30;;;;;;;;;;5051479;28;20193;-81
2021/07/02 11:09:06;;;;;;;10.73;6.07;;;;;;;;;;5083419;28;20249;-80
2021/07/02 11:11:50;;;;;;;7.27;5.30;;;;;;;;;;5072029;28;20183;-78
2021/07/02 11:14:16;;;;;;;7.73;6.40;;;;;;;;;;5067658;28;20188;-81
2021/07/02 11:17:01;;;;;;;9.60;6.57;;;;;;;;;;5070216;28;20238;-81
2021/07/02 11:19:27;;;;;;;6.57;5.80;;;;;;;;;;5071676;28;20172;-80
2021/07/02 11:22:12;;;;;;;10.50;7.20;;;;;;;;;;5067190;28;20246;-79
2021/07/02 11:24:57;;;;;;;8.77;6.80;;;;;;;;;;5055071;28;20187;-79
2021/07/02 11:27:35;;;;;;;7.40;6.33;;;;;;;;;;5071078;28;20187;-79
2021/07/02 11:30:05;;;;;;;9.43;6.77;;;;;;;;;;5061596;28;20181;-79
2021/07/02 11:32:32;;;;;;;10.30;6.37;;;;;;;;;;5069977;28;20176;-79
2021/07/02 11:35:18;;;;;;;12.73;8.27;;;;;;;;;;5070782;28;20188;-81
2021/07/02 11:38:00;;;;;;;11.63;7.10;;;;;;;;;;5068735;28;20308;-79
2021/07/02 11:40:31;;;;;;;11.53;8.03;;;;;;;;;;5071924;28;20599;-80
2021/07/02 11:42:57;;;;;;;13.07;6.97;;;;;;;;;;5052144;28;20486;-79
2021/07/02 11:45:36;;;;;;;9.07;6.67;;;;;;;;;;5067961;28;20179;-79
2021/07/02 11:48:02;;;;;;;10.83;7.70;;;;;;;;;;5070048;28;20173;-79
2021/07/02 11:50:44;;;;;;;11.60;8.83;;;;;;;;;;5066977;28;20185;-78
2021/07/02 11:53:29;;;;;;;10.00;8.30;;;;;;;;;;5069668;28;20173;-78
2021/07/02 11:56:02;;;;;;;12.53;9.37;;;;;;;;;;5070603;28;20176;-78
2021/07/02 11:58:32;;;;;;;11.00;8.80;;;;;;;;;;5070029;28;20184;-78
2021/07/02 12:00:59;;;;;;;11.63;8.93;;;;;;;;;;5067256;28;20236;-79
2021/07/02 12:03:25;;;;;;;14.37;10.53;;;;;;;;;;5073673;28;20173;-78
2021/07/02 12:05:52;;;;;;;13.53;9.27;;;;;;;;;;5071032;28;20318;-78
2021/07/02 12:08:22;;;;;;;16.60;10.07;;;;;;;;;;5071562;28;20197;-78
2021/07/02 12:10:53;;;;;;;14.70;10.67;;;;;;;;;;5072798;28;20272;-78
2021/07/02 12:13:22;;;;;;;12.80;10.33;;;;;;;;;;5071841;28;20260;-79
2021/07/02 12:16:05;;;;;;;12.17;10.20;;;;;;;;;;5071297;28;20188;-79
2021/07/02 12:18:31;;;;;;;13.60;10.23;;;;;;;;;;5072931;28;20630;-79
2021/07/02 12:21:02;;;;;;;12.17;9.60;;;;;;;;;;5070524;28;20208;-78
2021/07/02 12:23:33;;;;;;;12.00;9.67;;;;;;;;;;5072823;28;21043;-79
2021/07/02 12:26:13;;;;;;;13.13;10.03;;;;;;;;;;5071810;28;20187;-79
2021/07/02 12:28:57;;;;;;;14.00;10.57;;;;;;;;;;5073081;28;20176;-80
2021/07/02 12:31:24;;;;;;;13.93;10.40;;;;;;;;;;5085813;28;20654;-79
2021/07/02 12:33:50;;;;;;;12.30;9.77;;;;;;;;;;5071750;28;20184;-79
2021/07/02 12:36:16;;;;;;;11.97;10.20;;;;;;;;;;5071110;28;20227;-79
2021/07/02 12:39:01;;;;;;;11.97;9.73;;;;;;;;;;5071368;28;20172;-79
2021/07/02 12:41:48;;;;;;;12.13;9.97;;;;;;;;;;5064006;28;20208;-79
2021/07/02 12:44:18;;;;;;;14.00;9.30;;;;;;;;;;5072609;28;20624;-79
2021/07/02 12:46:45;;;;;;;14.13;9.90;;;;;;;;;;5065217;28;20181;-81
2021/07/02 12:49:21;;;;;;;14.27;9.87;;;;;;;;;;5070904;28;20172;-80
2021/07/02 12:55:09;;;;;;;17.63;10.63;;;;;;;;;;5073839;28;20313;-79
2021/07/02 12:57:39;;;;;;;12.73;10.20;;;;;;;;;;5019814;28;20207;-79
2021/07/02 13:00:10;;;;;;;15.03;9.70;;;;;;;;;;5072067;28;20204;-79
2021/07/02 13:02:39;;;;;;;12.60;8.30;;;;;;;;;;5071527;28;20670;-79
2021/07/02 13:05:05;;;;;;;13.10;8.50;;;;;;;;;;5070792;28;20184;-79
2021/07/02 13:08:04;;;;;;;14.60;8.50;;;;;;;;;;5071856;28;20203;-80
2021/07/02 13:10:42;;;;;;;11.40;8.20;;;;;;;;;;5049115;28;20223;-79
2021/07/02 13:13:20;;;;;;;10.23;7.57;;;;;;;;;;5071956;28;20188;-79
2021/07/02 13:15:49;;;;;;;11.70;8.20;;;;;;;;;;5063382;28;20627;-80
2021/07/02 13:18:25;;;;;;;16.43;8.60;;;;;;;;;;5061660;28;20825;-79
2021/07/02 13:20:55;;;;;;;11.37;7.57;;;;;;;;;;5071205;28;20206;-80
2021/07/02 13:23:22;;;;;;;8.90;7.37;;;;;;;;;;5072365;28;20180;-80
2021/07/02 13:26:10;;;;;;;9.67;7.60;;;;;;;;;;5069915;28;20366;-79
2021/07/02 13:28:39;;;;;;;13.33;7.83;;;;;;;;;;5070841;28;20184;-80
2021/07/02 13:31:39;;;;;;;11.60;7.77;;;;;;;;;;5070544;28;20281;-79
2021/07/02 13:34:07;;;;;;;11.40;8.40;;;;;;;;;;5016475;28;20208;-80
2021/07/02 13:36:37;;;;;;;11.30;8.73;;;;;;;;;;5063389;28;20220;-80
2021/07/02 13:39:17;;;;;;;10.80;7.37;;;;;;;;;;5058548;28;20205;-80
2021/07/02 13:41:45;;;;;;;7.90;6.90;;;;;;;;;;5069369;28;20202;-79
2021/07/02 13:44:13;;;;;;;14.27;7.50;;;;;;;;;;5069680;28;20183;-78
2021/07/02 13:46:39;;;;;;;12.52;7.80;;;;;;;;;;5066601;28;20433;-78
2021/07/02 13:49:06;;;;;;;7.50;6.30;;;;;;;;;;5068280;28;20194;-77
2021/07/02 13:51:33;;;;;;;8.57;7.20;;;;;;;;;;5060466;28;20192;-78
2021/07/02 13:54:06;;;;;;;10.17;6.93;;;;;;;;;;5069863;28;20556;-78
2021/07/02 13:56:32;;;;;;;10.13;6.63;;;;;;;;;;5068659;28;20501;-80
2021/07/02 13:58:58;;;;;;;9.00;6.63;;;;;;;;;;5069826;28;20186;-79
2021/07/02 14:01:24;;;;;;;10.47;6.53;;;;;;;;;;5070949;28;20255;-80
2021/07/02 14:03:50;;;;;;;5.37;4.87;;;;;;;;;;5068097;28;20236;-80
2021/07/02 14:06:17;;;;;;;8.47;7.23;;;;;;;;;;5072186;28;20196;-80
2021/07/02 14:08:45;;;;;;;10.73;7.13;;;;;;;;;;5064961;28;20621;-80
2021/07/02 14:11:11;;;;;;;12.47;9.00;;;;;;;;;;5067403;28;20181;-79
2021/07/02 14:13:37;;;;;;;12.27;7.87;;;;;;;;;;5067691;28;20252;-80
2021/07/02 14:16:04;;;;;;;10.07;8.13;;;;;;;;;;5068586;28;20534;-81
2021/07/02 14:18:30;;;;;;;10.03;7.90;;;;;;;;;;5067416;28;20202;-80
2021/07/02 14:20:56;;;;;;;9.80;6.70;;;;;;;;;;5069142;28;20204;-79
2021/07/02 14:23:22;;;;;;;11.30;6.97;;;;;;;;;;5070697;28;20184;-79
2021/07/02 14:25:48;;;;;;;6.50;5.87;;;;;;;;;;5069229;28;20200;-79
2021/07/02 14:28:14;;;;;;;7.87;6.87;;;;;;;;;;5070318;28;20195;-79
2021/07/02 14:30:40;;;;;;;9.30;7.37;;;;;;;;;;5067423;28;20185;-80
2021/07/02 14:33:06;;;;;;;9.60;7.87;;;;;;;;;;5068530;28;20192;-80
2021/07/02 14:35:32;;;;;;;14.20;8.90;;;;;;;;;;5066565;28;20480;-79
2021/07/02 14:37:58;;;;;;;11.00;9.03;;;;;;;;;;5068976;28;20233;-79
2021/07/02 14:40:24;;;;;;;11.70;10.07;;;;;;;;;;5067763;28;20291;-79
2021/07/02 14:42:51;;;;;;;10.00;8.53;;;;;;;;;;5068595;28;20238;-79
2021/07/02 14:45:17;;;;;;;14.93;9.40;;;;;;;;;;5068198;28;20194;-78
2021/07/02 14:47:43;;;;;;;13.27;10.37;;;;;;;;;;5068476;28;20185;-80